Orbital elements of FENGYUN 1C DEB
| Launched | 9 May 1999 |
| Flight ended | – |
| Launch site | Taiyuan Space Center, PRC |
| Owner | People's Republic of China |
| NORAD ID | 31021 |
| Date fetched |
Epoch osculation |
Inc. [°] |
Ecc. | RA asc node [hr] |
Arg Peri. [°] |
Mean anom [°] |
Mean motion [rev/day] |
Abs. mag |
| Date fetched |
Epoch osculation |
Inc. [°] |
Ecc. | RA asc node [hr] |
Arg Peri. [°] |
Mean anom [°] |
Mean motion [rev/day] |
Abs. mag |
| 2026 May 08 17:57 | 2026 May 02 01:26:34 | 98.3582 | 0.02618 | 16.1664 | 153.8026 | 207.6703 | 14.77630 | – |
| 2026 May 07 17:58 | 2026 May 02 01:26:34 | 98.3582 | 0.02618 | 16.1664 | 153.8026 | 207.6703 | 14.77630 | – |
| 2026 May 06 17:57 | 2026 May 02 01:26:34 | 98.3582 | 0.02618 | 16.1664 | 153.8026 | 207.6703 | 14.77630 | – |
| 2026 May 05 17:57 | 2026 May 02 01:26:34 | 98.3582 | 0.02618 | 16.1664 | 153.8026 | 207.6703 | 14.77630 | – |
| 2026 May 04 17:57 | 2026 Apr 25 13:24:36 | 98.3554 | 0.02620 | 15.7167 | 174.5374 | 207.6703 | 14.77630 | – |
| 2026 May 03 17:57 | 2026 Apr 25 13:24:36 | 98.3554 | 0.02620 | 15.7167 | 174.5374 | 207.6703 | 14.77630 | – |
| 2026 May 02 17:57 | 2026 Apr 25 13:24:36 | 98.3554 | 0.02620 | 15.7167 | 174.5374 | 207.6703 | 14.77630 | – |
| 2026 May 01 17:56 | 2026 Apr 25 13:24:36 | 98.3554 | 0.02620 | 15.7167 | 174.5374 | 207.6703 | 14.77630 | – |
| 2026 Apr 30 17:56 | 2026 Apr 25 13:24:36 | 98.3554 | 0.02620 | 15.7167 | 174.5374 | 207.6703 | 14.77630 | – |
| 2026 Apr 29 17:57 | 2026 Apr 23 02:53:33 | 98.3561 | 0.02616 | 15.5479 | 182.2440 | 207.6703 | 14.77630 | – |
| 2026 Apr 28 17:56 | 2026 Apr 23 02:53:33 | 98.3561 | 0.02616 | 15.5479 | 182.2440 | 207.6703 | 14.77630 | – |
| 2026 Apr 27 17:58 | 2026 Apr 23 02:53:33 | 98.3561 | 0.02616 | 15.5479 | 182.2440 | 207.6703 | 14.77630 | – |
| 2026 Apr 26 17:58 | 2026 Apr 23 02:53:33 | 98.3561 | 0.02616 | 15.5479 | 182.2440 | 207.6703 | 14.77630 | – |
| 2026 Apr 25 17:58 | 2026 Apr 23 02:53:33 | 98.3561 | 0.02616 | 15.5479 | 182.2440 | 207.6703 | 14.77630 | – |
| 2026 Apr 24 17:59 | 2026 Apr 23 02:53:33 | 98.3561 | 0.02616 | 15.5479 | 182.2440 | 207.6703 | 14.77630 | – |
| 2026 Apr 23 17:57 | 2026 Apr 16 13:12:42 | 98.3546 | 0.02620 | 15.0938 | 203.3497 | 207.6703 | 14.77630 | – |
| 2026 Apr 22 17:57 | 2026 Apr 16 13:12:42 | 98.3546 | 0.02620 | 15.0938 | 203.3497 | 207.6703 | 14.77630 | – |
| 2026 Apr 21 17:57 | 2026 Apr 16 13:12:42 | 98.3546 | 0.02620 | 15.0938 | 203.3497 | 207.6703 | 14.77630 | – |
| 2026 Apr 20 17:57 | 2026 Apr 16 13:12:42 | 98.3546 | 0.02620 | 15.0938 | 203.3497 | 207.6703 | 14.77630 | – |
| 2026 Apr 19 17:58 | 2026 Apr 16 13:12:42 | 98.3546 | 0.02620 | 15.0938 | 203.3497 | 207.6703 | 14.77630 | – |
| 2026 Apr 18 17:56 | 2026 Apr 11 03:09:33 | 98.3530 | 0.02616 | 14.7191 | 220.6641 | 207.6703 | 14.77630 | – |
| 2026 Apr 16 17:57 | 2026 Apr 11 03:09:33 | 98.3530 | 0.02616 | 14.7191 | 220.6641 | 207.6703 | 14.77630 | – |
| 2026 Apr 14 17:57 | 2026 Apr 11 03:09:33 | 98.3530 | 0.02616 | 14.7191 | 220.6641 | 207.6703 | 14.77630 | – |
| 2026 Apr 13 17:57 | 2026 Apr 11 03:09:33 | 98.3530 | 0.02616 | 14.7191 | 220.6641 | 207.6703 | 14.77630 | – |
| 2026 Apr 12 17:57 | 2026 Apr 01 13:55:40 | 98.3529 | 0.02617 | 14.0589 | 251.2885 | 207.6703 | 14.77630 | – |
| 2026 Apr 11 17:57 | 2026 Apr 01 13:55:40 | 98.3529 | 0.02617 | 14.0589 | 251.2885 | 207.6703 | 14.77630 | – |